sensor_id;sensor_type;location;lat;lon;timestamp;temperature;humidity
7516;DHT22;3799;47.184;8.538;2023-06-14T00:02:04;17.50;42.10
7516;DHT22;3799;47.184;8.538;2023-06-14T00:04:35;17.40;42.10
7516;DHT22;3799;47.184;8.538;2023-06-14T00:07:03;17.50;42.30
7516;DHT22;3799;47.184;8.538;2023-06-14T00:09:31;17.10;42.10
7516;DHT22;3799;47.184;8.538;2023-06-14T00:11:58;17.40;42.00
7516;DHT22;3799;47.184;8.538;2023-06-14T00:14:25;17.00;41.80
7516;DHT22;3799;47.184;8.538;2023-06-14T00:16:56;17.10;42.00
7516;DHT22;3799;47.184;8.538;2023-06-14T00:19:26;16.90;42.10
7516;DHT22;3799;47.184;8.538;2023-06-14T00:21:53;17.20;42.50
7516;DHT22;3799;47.184;8.538;2023-06-14T00:24:21;17.10;42.30
7516;DHT22;3799;47.184;8.538;2023-06-14T00:26:48;17.00;42.30
7516;DHT22;3799;47.184;8.538;2023-06-14T00:29:15;17.00;42.50
7516;DHT22;3799;47.184;8.538;2023-06-14T00:31:46;16.70;42.50
7516;DHT22;3799;47.184;8.538;2023-06-14T00:34:13;17.00;42.50
7516;DHT22;3799;47.184;8.538;2023-06-14T00:36:41;17.10;42.70
7516;DHT22;3799;47.184;8.538;2023-06-14T00:39:09;16.80;42.90
7516;DHT22;3799;47.184;8.538;2023-06-14T00:41:37;17.00;43.30
7516;DHT22;3799;47.184;8.538;2023-06-14T00:44:07;17.30;43.40
7516;DHT22;3799;47.184;8.538;2023-06-14T00:46:35;17.20;43.10
7516;DHT22;3799;47.184;8.538;2023-06-14T00:49:03;17.10;43.00
7516;DHT22;3799;47.184;8.538;2023-06-14T00:51:30;17.50;43.00
7516;DHT22;3799;47.184;8.538;2023-06-14T00:53:58;17.20;42.70
7516;DHT22;3799;47.184;8.538;2023-06-14T00:56:25;17.30;42.80
7516;DHT22;3799;47.184;8.538;2023-06-14T00:59:03;17.30;42.40
7516;DHT22;3799;47.184;8.538;2023-06-14T01:01:30;17.40;42.50
7516;DHT22;3799;47.184;8.538;2023-06-14T01:04:01;17.30;42.30
7516;DHT22;3799;47.184;8.538;2023-06-14T01:12:15;16.90;42.60
7516;DHT22;3799;47.184;8.538;2023-06-14T01:14:44;16.70;42.60
7516;DHT22;3799;47.184;8.538;2023-06-14T01:17:13;16.70;42.70
7516;DHT22;3799;47.184;8.538;2023-06-14T01:19:43;16.70;42.90
7516;DHT22;3799;47.184;8.538;2023-06-14T01:22:13;16.80;43.00
7516;DHT22;3799;47.184;8.538;2023-06-14T01:24:41;16.40;43.00
7516;DHT22;3799;47.184;8.538;2023-06-14T01:27:12;16.30;43.20
7516;DHT22;3799;47.184;8.538;2023-06-14T01:29:40;16.60;43.70
7516;DHT22;3799;47.184;8.538;2023-06-14T01:32:13;16.20;43.50
7516;DHT22;3799;47.184;8.538;2023-06-14T01:34:40;16.10;43.50
7516;DHT22;3799;47.184;8.538;2023-06-14T01:37:08;16.20;43.50
7516;DHT22;3799;47.184;8.538;2023-06-14T01:39:36;16.20;43.60
7516;DHT22;3799;47.184;8.538;2023-06-14T01:42:04;16.00;43.60
7516;DHT22;3799;47.184;8.538;2023-06-14T01:44:33;16.00;43.70
7516;DHT22;3799;47.184;8.538;2023-06-14T01:47:00;16.20;43.80
7516;DHT22;3799;47.184;8.538;2023-06-14T01:49:28;15.90;43.80
7516;DHT22;3799;47.184;8.538;2023-06-14T01:51:55;15.90;43.70
7516;DHT22;3799;47.184;8.538;2023-06-14T01:54:23;15.90;43.90
7516;DHT22;3799;47.184;8.538;2023-06-14T01:56:52;16.10;44.20
7516;DHT22;3799;47.184;8.538;2023-06-14T01:59:22;16.20;44.00
7516;DHT22;3799;47.184;8.538;2023-06-14T02:01:49;16.30;43.80
7516;DHT22;3799;47.184;8.538;2023-06-14T02:04:17;16.10;43.60
7516;DHT22;3799;47.184;8.538;2023-06-14T02:06:44;16.10;43.70
7516;DHT22;3799;47.184;8.538;2023-06-14T02:09:12;16.10;44.00
7516;DHT22;3799;47.184;8.538;2023-06-14T02:11:43;16.10;44.20
7516;DHT22;3799;47.184;8.538;2023-06-14T02:14:11;16.00;44.50
7516;DHT22;3799;47.184;8.538;2023-06-14T02:16:39;16.00;44.30
7516;DHT22;3799;47.184;8.538;2023-06-14T02:19:06;15.90;44.30
7516;DHT22;3799;47.184;8.538;2023-06-14T02:21:34;15.70;44.10
7516;DHT22;3799;47.184;8.538;2023-06-14T02:24:01;15.70;44.30
7516;DHT22;3799;47.184;8.538;2023-06-14T02:26:29;15.50;44.00
7516;DHT22;3799;47.184;8.538;2023-06-14T02:28:57;15.50;44.10
7516;DHT22;3799;47.184;8.538;2023-06-14T02:31:24;15.50;44.30
7516;DHT22;3799;47.184;8.538;2023-06-14T02:33:55;15.40;44.40
7516;DHT22;3799;47.184;8.538;2023-06-14T02:36:22;15.50;44.80
7516;DHT22;3799;47.184;8.538;2023-06-14T02:38:49;15.50;45.00
7516;DHT22;3799;47.184;8.538;2023-06-14T02:41:21;15.40;44.80
7516;DHT22;3799;47.184;8.538;2023-06-14T02:43:48;15.30;44.70
7516;DHT22;3799;47.184;8.538;2023-06-14T02:46:16;15.50;44.80
7516;DHT22;3799;47.184;8.538;2023-06-14T02:48:44;15.50;45.20
7516;DHT22;3799;47.184;8.538;2023-06-14T02:51:11;15.50;45.10
7516;DHT22;3799;47.184;8.538;2023-06-14T02:53:40;15.30;45.40
7516;DHT22;3799;47.184;8.538;2023-06-14T02:56:07;15.70;45.40
7516;DHT22;3799;47.184;8.538;2023-06-14T02:58:36;15.50;45.20
7516;DHT22;3799;47.184;8.538;2023-06-14T03:01:04;15.50;45.30
7516;DHT22;3799;47.184;8.538;2023-06-14T03:03:33;15.50;45.30
7516;DHT22;3799;47.184;8.538;2023-06-14T03:06:00;15.40;45.60
7516;DHT22;3799;47.184;8.538;2023-06-14T03:08:32;15.20;45.60
7516;DHT22;3799;47.184;8.538;2023-06-14T03:11:05;15.10;45.70
7516;DHT22;3799;47.184;8.538;2023-06-14T03:13:34;14.90;45.70
7516;DHT22;3799;47.184;8.538;2023-06-14T03:16:02;14.90;46.00
7516;DHT22;3799;47.184;8.538;2023-06-14T03:18:30;15.00;46.10
7516;DHT22;3799;47.184;8.538;2023-06-14T03:21:03;15.10;46.20
7516;DHT22;3799;47.184;8.538;2023-06-14T03:23:31;15.00;46.20
7516;DHT22;3799;47.184;8.538;2023-06-14T03:25:59;15.00;46.20
7516;DHT22;3799;47.184;8.538;2023-06-14T03:28:26;15.30;46.80
7516;DHT22;3799;47.184;8.538;2023-06-14T03:30:54;15.10;46.40
7516;DHT22;3799;47.184;8.538;2023-06-14T03:33:22;15.20;46.20
7516;DHT22;3799;47.184;8.538;2023-06-14T03:35:49;15.30;46.30
7516;DHT22;3799;47.184;8.538;2023-06-14T03:38:17;15.10;45.90
7516;DHT22;3799;47.184;8.538;2023-06-14T03:40:44;15.00;45.90
7516;DHT22;3799;47.184;8.538;2023-06-14T03:43:12;15.10;46.30
7516;DHT22;3799;47.184;8.538;2023-06-14T03:45:40;15.00;46.70
7516;DHT22;3799;47.184;8.538;2023-06-14T03:48:13;15.30;46.70
7516;DHT22;3799;47.184;8.538;2023-06-14T03:50:41;15.40;46.90
7516;DHT22;3799;47.184;8.538;2023-06-14T03:53:10;15.20;46.90
7516;DHT22;3799;47.184;8.538;2023-06-14T03:55:37;15.30;46.60
7516;DHT22;3799;47.184;8.538;2023-06-14T03:58:22;15.20;46.30
7516;DHT22;3799;47.184;8.538;2023-06-14T04:00:50;15.10;45.90
7516;DHT22;3799;47.184;8.538;2023-06-14T04:03:17;15.40;46.40
7516;DHT22;3799;47.184;8.538;2023-06-14T04:05:47;15.50;46.30
7516;DHT22;3799;47.184;8.538;2023-06-14T04:08:16;15.60;46.20
7516;DHT22;3799;47.184;8.538;2023-06-14T04:10:47;15.70;46.10
7516;DHT22;3799;47.184;8.538;2023-06-14T04:13:15;15.70;45.80
7516;DHT22;3799;47.184;8.538;2023-06-14T04:15:43;15.70;45.50
7516;DHT22;3799;47.184;8.538;2023-06-14T04:18:13;15.80;45.30
7516;DHT22;3799;47.184;8.538;2023-06-14T04:20:40;15.70;45.40
7516;DHT22;3799;47.184;8.538;2023-06-14T04:23:16;15.50;45.90
7516;DHT22;3799;47.184;8.538;2023-06-14T04:25:45;15.30;46.00
7516;DHT22;3799;47.184;8.538;2023-06-14T04:28:13;15.40;46.40
7516;DHT22;3799;47.184;8.538;2023-06-14T04:30:53;15.30;46.50
7516;DHT22;3799;47.184;8.538;2023-06-14T04:33:20;15.30;46.80
7516;DHT22;3799;47.184;8.538;2023-06-14T04:35:48;15.50;47.50
7516;DHT22;3799;47.184;8.538;2023-06-14T04:38:16;15.30;47.10
7516;DHT22;3799;47.184;8.538;2023-06-14T04:40:44;15.60;47.50
7516;DHT22;3799;47.184;8.538;2023-06-14T04:43:13;15.70;47.10
7516;DHT22;3799;47.184;8.538;2023-06-14T04:45:44;15.50;46.90
7516;DHT22;3799;47.184;8.538;2023-06-14T04:48:13;15.60;47.40
7516;DHT22;3799;47.184;8.538;2023-06-14T04:50:51;15.50;47.50
7516;DHT22;3799;47.184;8.538;2023-06-14T04:53:20;15.40;47.80
7516;DHT22;3799;47.184;8.538;2023-06-14T04:55:58;15.80;47.80
7516;DHT22;3799;47.184;8.538;2023-06-14T04:58:25;15.40;47.30
7516;DHT22;3799;47.184;8.538;2023-06-14T05:00:53;15.80;47.70
7516;DHT22;3799;47.184;8.538;2023-06-14T05:03:24;15.60;47.60
7516;DHT22;3799;47.184;8.538;2023-06-14T05:05:52;15.80;48.00
7516;DHT22;3799;47.184;8.538;2023-06-14T05:08:21;15.80;48.40
7516;DHT22;3799;47.184;8.538;2023-06-14T05:10:51;15.50;48.70
7516;DHT22;3799;47.184;8.538;2023-06-14T05:13:18;15.80;49.10
7516;DHT22;3799;47.184;8.538;2023-06-14T05:15:46;15.80;49.30
7516;DHT22;3799;47.184;8.538;2023-06-14T05:18:14;15.90;49.30
7516;DHT22;3799;47.184;8.538;2023-06-14T05:20:42;16.20;49.20
7516;DHT22;3799;47.184;8.538;2023-06-14T05:23:18;16.50;49.10
7516;DHT22;3799;47.184;8.538;2023-06-14T05:25:46;16.60;49.00
7516;DHT22;3799;47.184;8.538;2023-06-14T05:28:14;16.70;48.90
7516;DHT22;3799;47.184;8.538;2023-06-14T05:30:41;16.90;49.00
7516;DHT22;3799;47.184;8.538;2023-06-14T05:33:09;17.10;49.40
7516;DHT22;3799;47.184;8.538;2023-06-14T05:35:37;17.70;50.70
7516;DHT22;3799;47.184;8.538;2023-06-14T05:38:05;18.00;50.80
7516;DHT22;3799;47.184;8.538;2023-06-14T05:40:34;18.40;50.60
7516;DHT22;3799;47.184;8.538;2023-06-14T05:43:05;18.80;50.10
7516;DHT22;3799;47.184;8.538;2023-06-14T05:45:32;19.20;49.60
7516;DHT22;3799;47.184;8.538;2023-06-14T05:48:00;19.10;48.70
7516;DHT22;3799;47.184;8.538;2023-06-14T05:50:28;19.30;48.60
7516;DHT22;3799;47.184;8.538;2023-06-14T05:52:57;19.70;48.50
7516;DHT22;3799;47.184;8.538;2023-06-14T05:55:25;19.70;48.20
7516;DHT22;3799;47.184;8.538;2023-06-14T05:57:53;19.80;47.90
7516;DHT22;3799;47.184;8.538;2023-06-14T06:00:20;19.60;47.60
7516;DHT22;3799;47.184;8.538;2023-06-14T06:02:48;19.90;47.60
7516;DHT22;3799;47.184;8.538;2023-06-14T06:05:16;20.00;47.50
7516;DHT22;3799;47.184;8.538;2023-06-14T06:07:44;20.10;47.50
7516;DHT22;3799;47.184;8.538;2023-06-14T06:10:12;19.90;46.90
7516;DHT22;3799;47.184;8.538;2023-06-14T06:12:43;20.20;47.20
7516;DHT22;3799;47.184;8.538;2023-06-14T06:15:11;19.90;46.80
7516;DHT22;3799;47.184;8.538;2023-06-14T06:17:40;20.10;47.00
7516;DHT22;3799;47.184;8.538;2023-06-14T06:20:23;20.10;47.10
7516;DHT22;3799;47.184;8.538;2023-06-14T06:22:57;20.30;47.20
7516;DHT22;3799;47.184;8.538;2023-06-14T06:25:42;20.20;46.70
7516;DHT22;3799;47.184;8.538;2023-06-14T06:28:09;20.40;46.80
7516;DHT22;3799;47.184;8.538;2023-06-14T06:30:37;20.50;46.70
7516;DHT22;3799;47.184;8.538;2023-06-14T06:33:04;20.60;46.50
7516;DHT22;3799;47.184;8.538;2023-06-14T06:35:32;20.50;46.50
7516;DHT22;3799;47.184;8.538;2023-06-14T06:38:00;20.80;46.10
7516;DHT22;3799;47.184;8.538;2023-06-14T06:40:36;20.90;45.90
7516;DHT22;3799;47.184;8.538;2023-06-14T06:43:09;21.00;45.50
7516;DHT22;3799;47.184;8.538;2023-06-14T06:45:41;21.30;45.60
7516;DHT22;3799;47.184;8.538;2023-06-14T06:48:09;21.20;45.20
7516;DHT22;3799;47.184;8.538;2023-06-14T06:50:39;21.20;44.70
7516;DHT22;3799;47.184;8.538;2023-06-14T06:53:07;21.30;44.90
7516;DHT22;3799;47.184;8.538;2023-06-14T06:55:35;21.30;44.50
7516;DHT22;3799;47.184;8.538;2023-06-14T06:58:06;21.30;44.50
7516;DHT22;3799;47.184;8.538;2023-06-14T07:00:38;21.30;44.30
7516;DHT22;3799;47.184;8.538;2023-06-14T07:03:07;21.20;44.40
7516;DHT22;3799;47.184;8.538;2023-06-14T07:05:35;21.30;44.50
7516;DHT22;3799;47.184;8.538;2023-06-14T07:08:05;21.20;44.20
7516;DHT22;3799;47.184;8.538;2023-06-14T07:10:33;21.20;44.30
7516;DHT22;3799;47.184;8.538;2023-06-14T07:13:05;21.20;44.40
7516;DHT22;3799;47.184;8.538;2023-06-14T07:15:39;21.00;44.40
7516;DHT22;3799;47.184;8.538;2023-06-14T07:18:07;21.10;44.50
7516;DHT22;3799;47.184;8.538;2023-06-14T07:20:39;21.10;44.40
7516;DHT22;3799;47.184;8.538;2023-06-14T07:23:15;21.10;44.70
7516;DHT22;3799;47.184;8.538;2023-06-14T07:25:42;21.20;44.70
7516;DHT22;3799;47.184;8.538;2023-06-14T07:28:10;21.40;44.70
7516;DHT22;3799;47.184;8.538;2023-06-14T07:30:38;21.50;44.40
7516;DHT22;3799;47.184;8.538;2023-06-14T07:33:09;21.50;43.20
7516;DHT22;3799;47.184;8.538;2023-06-14T07:35:40;21.50;43.70
7516;DHT22;3799;47.184;8.538;2023-06-14T07:38:10;21.50;43.70
7516;DHT22;3799;47.184;8.538;2023-06-14T07:40:37;21.50;43.80
7516;DHT22;3799;47.184;8.538;2023-06-14T07:43:18;21.60;42.90
7516;DHT22;3799;47.184;8.538;2023-06-14T07:45:54;21.60;42.80
7516;DHT22;3799;47.184;8.538;2023-06-14T07:48:33;21.70;43.10
7516;DHT22;3799;47.184;8.538;2023-06-14T07:51:05;21.80;42.80
7516;DHT22;3799;47.184;8.538;2023-06-14T07:53:38;21.90;42.90
7516;DHT22;3799;47.184;8.538;2023-06-14T07:56:06;21.90;42.20
7516;DHT22;3799;47.184;8.538;2023-06-14T07:58:33;21.90;42.40
7516;DHT22;3799;47.184;8.538;2023-06-14T08:01:07;22.00;42.40
7516;DHT22;3799;47.184;8.538;2023-06-14T08:03:39;22.00;41.90
7516;DHT22;3799;47.184;8.538;2023-06-14T08:06:07;22.00;42.40
7516;DHT22;3799;47.184;8.538;2023-06-14T08:08:34;22.10;42.30
7516;DHT22;3799;47.184;8.538;2023-06-14T08:11:04;22.20;42.30
7516;DHT22;3799;47.184;8.538;2023-06-14T08:13:32;22.20;41.40
7516;DHT22;3799;47.184;8.538;2023-06-14T08:15:59;22.20;40.80
7516;DHT22;3799;47.184;8.538;2023-06-14T08:18:28;22.20;40.40
7516;DHT22;3799;47.184;8.538;2023-06-14T08:21:00;22.10;40.70
7516;DHT22;3799;47.184;8.538;2023-06-14T08:23:28;22.20;41.00
7516;DHT22;3799;47.184;8.538;2023-06-14T08:25:55;22.20;41.20
7516;DHT22;3799;47.184;8.538;2023-06-14T08:28:28;22.20;41.10
7516;DHT22;3799;47.184;8.538;2023-06-14T08:30:57;22.20;41.20
7516;DHT22;3799;47.184;8.538;2023-06-14T08:33:27;22.30;41.60
7516;DHT22;3799;47.184;8.538;2023-06-14T08:35:55;22.40;42.60
7516;DHT22;3799;47.184;8.538;2023-06-14T08:38:25;22.60;42.30
7516;DHT22;3799;47.184;8.538;2023-06-14T08:40:57;22.70;41.50
7516;DHT22;3799;47.184;8.538;2023-06-14T08:43:25;22.80;41.50
7516;DHT22;3799;47.184;8.538;2023-06-14T08:45:59;22.80;41.40
7516;DHT22;3799;47.184;8.538;2023-06-14T08:48:27;22.80;41.20
7516;DHT22;3799;47.184;8.538;2023-06-14T08:50:56;22.90;41.70
7516;DHT22;3799;47.184;8.538;2023-06-14T08:53:33;23.00;41.20
7516;DHT22;3799;47.184;8.538;2023-06-14T08:56:05;23.00;41.40
7516;DHT22;3799;47.184;8.538;2023-06-14T08:58:43;23.10;40.90
7516;DHT22;3799;47.184;8.538;2023-06-14T09:01:12;23.20;40.70
7516;DHT22;3799;47.184;8.538;2023-06-14T09:03:41;23.30;39.90
7516;DHT22;3799;47.184;8.538;2023-06-14T09:06:09;23.30;39.90
7516;DHT22;3799;47.184;8.538;2023-06-14T09:08:46;23.40;40.30
7516;DHT22;3799;47.184;8.538;2023-06-14T09:11:29;23.50;39.40
7516;DHT22;3799;47.184;8.538;2023-06-14T09:13:57;23.50;39.60
7516;DHT22;3799;47.184;8.538;2023-06-14T09:16:25;23.60;40.50
7516;DHT22;3799;47.184;8.538;2023-06-14T09:18:53;23.70;39.90
7516;DHT22;3799;47.184;8.538;2023-06-14T09:21:22;23.80;39.50
7516;DHT22;3799;47.184;8.538;2023-06-14T09:23:50;24.00;39.80
7516;DHT22;3799;47.184;8.538;2023-06-14T09:26:20;24.00;40.30
7516;DHT22;3799;47.184;8.538;2023-06-14T09:28:49;24.20;39.60
7516;DHT22;3799;47.184;8.538;2023-06-14T09:31:21;24.20;37.60
7516;DHT22;3799;47.184;8.538;2023-06-14T09:33:50;24.20;38.80
7516;DHT22;3799;47.184;8.538;2023-06-14T09:36:22;24.30;39.00
7516;DHT22;3799;47.184;8.538;2023-06-14T09:41:35;24.40;37.00
7516;DHT22;3799;47.184;8.538;2023-06-14T09:44:06;24.40;37.70
7516;DHT22;3799;47.184;8.538;2023-06-14T09:46:40;24.50;38.00
7516;DHT22;3799;47.184;8.538;2023-06-14T09:49:10;24.70;38.20
7516;DHT22;3799;47.184;8.538;2023-06-14T09:51:45;24.80;38.40
7516;DHT22;3799;47.184;8.538;2023-06-14T09:54:22;25.00;38.60
7516;DHT22;3799;47.184;8.538;2023-06-14T09:56:51;25.20;37.90
7516;DHT22;3799;47.184;8.538;2023-06-14T09:59:22;25.30;37.60
7516;DHT22;3799;47.184;8.538;2023-06-14T10:01:58;25.50;37.70
7516;DHT22;3799;47.184;8.538;2023-06-14T10:04:30;25.60;37.40
7516;DHT22;3799;47.184;8.538;2023-06-14T10:06:59;25.70;37.00
7516;DHT22;3799;47.184;8.538;2023-06-14T10:09:28;25.80;36.00
7516;DHT22;3799;47.184;8.538;2023-06-14T10:12:01;25.80;35.40
7516;DHT22;3799;47.184;8.538;2023-06-14T10:14:28;25.80;35.20
7516;DHT22;3799;47.184;8.538;2023-06-14T10:17:06;25.90;35.20
7516;DHT22;3799;47.184;8.538;2023-06-14T10:19:54;26.00;35.50
7516;DHT22;3799;47.184;8.538;2023-06-14T10:22:40;26.10;35.50
7516;DHT22;3799;47.184;8.538;2023-06-14T10:25:13;26.20;36.00
7516;DHT22;3799;47.184;8.538;2023-06-14T10:27:53;26.30;35.40
7516;DHT22;3799;47.184;8.538;2023-06-14T10:30:25;26.50;34.80
7516;DHT22;3799;47.184;8.538;2023-06-14T10:33:08;26.70;34.50
7516;DHT22;3799;47.184;8.538;2023-06-14T10:35:37;26.90;34.40
7516;DHT22;3799;47.184;8.538;2023-06-14T10:38:09;27.00;34.10
7516;DHT22;3799;47.184;8.538;2023-06-14T10:40:39;27.10;33.90
7516;DHT22;3799;47.184;8.538;2023-06-14T10:43:23;27.20;34.40
7516;DHT22;3799;47.184;8.538;2023-06-14T10:46:16;27.30;34.50
7516;DHT22;3799;47.184;8.538;2023-06-14T10:48:48;27.50;34.80
7516;DHT22;3799;47.184;8.538;2023-06-14T10:51:20;27.70;34.60
7516;DHT22;3799;47.184;8.538;2023-06-14T10:53:49;27.80;34.70
7516;DHT22;3799;47.184;8.538;2023-06-14T10:56:29;27.90;34.20
7516;DHT22;3799;47.184;8.538;2023-06-14T10:58:58;28.10;34.20
7516;DHT22;3799;47.184;8.538;2023-06-14T11:04:56;28.30;33.60
7516;DHT22;3799;47.184;8.538;2023-06-14T11:10:26;28.60;33.20
7516;DHT22;3799;47.184;8.538;2023-06-14T11:12:57;28.70;33.20
7516;DHT22;3799;47.184;8.538;2023-06-14T11:15:32;28.80;33.90
7516;DHT22;3799;47.184;8.538;2023-06-14T11:18:01;28.80;33.20
7516;DHT22;3799;47.184;8.538;2023-06-14T11:20:32;28.80;32.70
7516;DHT22;3799;47.184;8.538;2023-06-14T11:23:01;28.90;33.30
7516;DHT22;3799;47.184;8.538;2023-06-14T11:25:29;29.00;32.70
7516;DHT22;3799;47.184;8.538;2023-06-14T11:27:57;29.10;33.10
7516;DHT22;3799;47.184;8.538;2023-06-14T11:30:27;29.30;33.00
7516;DHT22;3799;47.184;8.538;2023-06-14T11:32:55;29.40;33.20
7516;DHT22;3799;47.184;8.538;2023-06-14T11:35:26;29.40;32.50
7516;DHT22;3799;47.184;8.538;2023-06-14T11:37:55;29.40;32.50
7516;DHT22;3799;47.184;8.538;2023-06-14T11:40:26;29.40;32.20
7516;DHT22;3799;47.184;8.538;2023-06-14T11:43:01;29.50;32.20
7516;DHT22;3799;47.184;8.538;2023-06-14T11:45:30;29.70;31.80
7516;DHT22;3799;47.184;8.538;2023-06-14T11:47:58;29.80;31.80
7516;DHT22;3799;47.184;8.538;2023-06-14T11:50:27;29.90;31.20
7516;DHT22;3799;47.184;8.538;2023-06-14T11:52:56;29.90;30.50
7516;DHT22;3799;47.184;8.538;2023-06-14T11:55:25;29.80;30.70
7516;DHT22;3799;47.184;8.538;2023-06-14T11:57:55;30.00;30.80
7516;DHT22;3799;47.184;8.538;2023-06-14T12:00:26;30.20;31.20
7516;DHT22;3799;47.184;8.538;2023-06-14T12:02:59;30.40;30.40
7516;DHT22;3799;47.184;8.538;2023-06-14T12:05:27;30.40;30.20
7516;DHT22;3799;47.184;8.538;2023-06-14T12:07:59;30.60;30.70
7516;DHT22;3799;47.184;8.538;2023-06-14T12:10:27;30.70;30.50
7516;DHT22;3799;47.184;8.538;2023-06-14T12:12:59;30.90;30.40
7516;DHT22;3799;47.184;8.538;2023-06-14T12:15:29;31.00;30.00
7516;DHT22;3799;47.184;8.538;2023-06-14T12:18:06;31.20;30.00
7516;DHT22;3799;47.184;8.538;2023-06-14T12:20:35;31.30;29.50
7516;DHT22;3799;47.184;8.538;2023-06-14T12:23:04;31.50;29.60
7516;DHT22;3799;47.184;8.538;2023-06-14T12:25:36;31.70;30.00
7516;DHT22;3799;47.184;8.538;2023-06-14T12:28:07;31.80;29.90
7516;DHT22;3799;47.184;8.538;2023-06-14T12:30:36;32.00;29.50
7516;DHT22;3799;47.184;8.538;2023-06-14T12:33:05;32.00;29.50
7516;DHT22;3799;47.184;8.538;2023-06-14T12:35:35;32.10;29.40
7516;DHT22;3799;47.184;8.538;2023-06-14T12:38:03;32.20;29.20
7516;DHT22;3799;47.184;8.538;2023-06-14T12:40:32;32.30;28.80
7516;DHT22;3799;47.184;8.538;2023-06-14T12:43:04;32.40;28.60
7516;DHT22;3799;47.184;8.538;2023-06-14T12:45:35;32.50;28.30
7516;DHT22;3799;47.184;8.538;2023-06-14T12:48:03;32.60;28.30
7516;DHT22;3799;47.184;8.538;2023-06-14T12:50:31;32.70;28.30
7516;DHT22;3799;47.184;8.538;2023-06-14T12:53:05;32.90;28.60
7516;DHT22;3799;47.184;8.538;2023-06-14T12:55:35;33.00;28.50
7516;DHT22;3799;47.184;8.538;2023-06-14T12:58:02;33.10;28.50
7516;DHT22;3799;47.184;8.538;2023-06-14T13:00:45;33.20;28.20
7516;DHT22;3799;47.184;8.538;2023-06-14T13:03:13;33.20;27.70
7516;DHT22;3799;47.184;8.538;2023-06-14T13:05:46;33.20;27.90
7516;DHT22;3799;47.184;8.538;2023-06-14T13:08:17;33.30;27.70
7516;DHT22;3799;47.184;8.538;2023-06-14T13:10:44;33.40;27.80
7516;DHT22;3799;47.184;8.538;2023-06-14T13:13:12;33.50;27.90
7516;DHT22;3799;47.184;8.538;2023-06-14T13:15:40;33.60;28.30
7516;DHT22;3799;47.184;8.538;2023-06-14T13:18:12;33.70;28.70
7516;DHT22;3799;47.184;8.538;2023-06-14T13:20:40;33.80;28.50
7516;DHT22;3799;47.184;8.538;2023-06-14T13:23:08;33.90;28.10
7516;DHT22;3799;47.184;8.538;2023-06-14T13:25:39;33.90;28.10
7516;DHT22;3799;47.184;8.538;2023-06-14T13:28:07;34.00;28.60
7516;DHT22;3799;47.184;8.538;2023-06-14T13:30:35;34.20;28.80
7516;DHT22;3799;47.184;8.538;2023-06-14T13:33:05;34.30;28.70
7516;DHT22;3799;47.184;8.538;2023-06-14T13:35:33;34.50;28.60
7516;DHT22;3799;47.184;8.538;2023-06-14T13:38:02;34.50;28.00
7516;DHT22;3799;47.184;8.538;2023-06-14T13:40:32;34.50;27.70
7516;DHT22;3799;47.184;8.538;2023-06-14T13:43:00;34.60;27.60
7516;DHT22;3799;47.184;8.538;2023-06-14T13:45:30;34.60;27.40
7516;DHT22;3799;47.184;8.538;2023-06-14T13:47:58;34.70;27.40
7516;DHT22;3799;47.184;8.538;2023-06-14T13:50:30;34.80;27.70
7516;DHT22;3799;47.184;8.538;2023-06-14T13:52:58;34.90;27.40
7516;DHT22;3799;47.184;8.538;2023-06-14T13:55:32;35.00;27.30
7516;DHT22;3799;47.184;8.538;2023-06-14T13:58:06;35.10;27.80
7516;DHT22;3799;47.184;8.538;2023-06-14T14:00:44;35.20;27.70
7516;DHT22;3799;47.184;8.538;2023-06-14T14:03:16;35.30;27.80
7516;DHT22;3799;47.184;8.538;2023-06-14T14:05:49;35.40;27.70
7516;DHT22;3799;47.184;8.538;2023-06-14T14:08:24;35.60;27.80
7516;DHT22;3799;47.184;8.538;2023-06-14T14:10:57;35.60;27.90
7516;DHT22;3799;47.184;8.538;2023-06-14T14:13:30;35.70;28.00
7516;DHT22;3799;47.184;8.538;2023-06-14T14:16:03;35.80;28.00
7516;DHT22;3799;47.184;8.538;2023-06-14T14:18:38;35.90;28.10
7516;DHT22;3799;47.184;8.538;2023-06-14T14:21:12;36.00;27.60
7516;DHT22;3799;47.184;8.538;2023-06-14T14:23:46;36.00;27.10
7516;DHT22;3799;47.184;8.538;2023-06-14T14:26:22;36.10;27.40
7516;DHT22;3799;47.184;8.538;2023-06-14T14:28:56;36.10;27.70
7516;DHT22;3799;47.184;8.538;2023-06-14T14:31:30;36.20;27.50
7516;DHT22;3799;47.184;8.538;2023-06-14T14:34:05;36.20;27.10
7516;DHT22;3799;47.184;8.538;2023-06-14T14:36:41;36.20;27.30
7516;DHT22;3799;47.184;8.538;2023-06-14T14:39:15;36.30;27.10
7516;DHT22;3799;47.184;8.538;2023-06-14T14:41:48;36.30;27.20
7516;DHT22;3799;47.184;8.538;2023-06-14T14:44:27;36.30;27.20
7516;DHT22;3799;47.184;8.538;2023-06-14T14:46:59;36.40;27.20
7516;DHT22;3799;47.184;8.538;2023-06-14T15:06:59;36.90;26.70
7516;DHT22;3799;47.184;8.538;2023-06-14T15:09:47;36.90;27.30
7516;DHT22;3799;47.184;8.538;2023-06-14T15:12:37;36.90;27.00
7516;DHT22;3799;47.184;8.538;2023-06-14T15:23:32;37.10;27.00
7516;DHT22;3799;47.184;8.538;2023-06-14T15:26:20;37.10;27.10
7516;DHT22;3799;47.184;8.538;2023-06-14T15:28:53;37.20;27.10
7516;DHT22;3799;47.184;8.538;2023-06-14T15:31:24;37.30;27.20
7516;DHT22;3799;47.184;8.538;2023-06-14T15:33:55;37.20;27.00
7516;DHT22;3799;47.184;8.538;2023-06-14T15:36:25;37.20;26.90
7516;DHT22;3799;47.184;8.538;2023-06-14T15:39:04;37.10;27.00
7516;DHT22;3799;47.184;8.538;2023-06-14T15:41:54;37.10;27.00
7516;DHT22;3799;47.184;8.538;2023-06-14T15:44:22;37.20;26.70
7516;DHT22;3799;47.184;8.538;2023-06-14T15:46:50;37.20;26.40
7516;DHT22;3799;47.184;8.538;2023-06-14T15:49:18;37.20;26.60
7516;DHT22;3799;47.184;8.538;2023-06-14T15:51:47;37.10;26.80
7516;DHT22;3799;47.184;8.538;2023-06-14T15:54:14;37.10;27.00
7516;DHT22;3799;47.184;8.538;2023-06-14T15:56:42;37.20;27.00
7516;DHT22;3799;47.184;8.538;2023-06-14T15:59:09;37.20;26.80
7516;DHT22;3799;47.184;8.538;2023-06-14T16:01:37;37.20;26.90
7516;DHT22;3799;47.184;8.538;2023-06-14T16:04:05;37.20;27.10
7516;DHT22;3799;47.184;8.538;2023-06-14T16:06:32;37.10;26.80
7516;DHT22;3799;47.184;8.538;2023-06-14T16:09:03;37.10;26.80
7516;DHT22;3799;47.184;8.538;2023-06-14T16:11:30;37.00;26.60
7516;DHT22;3799;47.184;8.538;2023-06-14T16:14:01;36.90;27.00
7516;DHT22;3799;47.184;8.538;2023-06-14T16:16:29;36.90;27.20
7516;DHT22;3799;47.184;8.538;2023-06-14T16:18:57;36.80;27.10
7516;DHT22;3799;47.184;8.538;2023-06-14T16:21:24;36.80;27.10
7516;DHT22;3799;47.184;8.538;2023-06-14T16:23:52;36.70;27.20
7516;DHT22;3799;47.184;8.538;2023-06-14T16:26:20;36.80;27.20
7516;DHT22;3799;47.184;8.538;2023-06-14T16:28:48;36.70;27.00
7516;DHT22;3799;47.184;8.538;2023-06-14T16:31:15;36.60;27.00
7516;DHT22;3799;47.184;8.538;2023-06-14T16:33:45;36.50;27.00
7516;DHT22;3799;47.184;8.538;2023-06-14T16:36:16;36.50;27.20
7516;DHT22;3799;47.184;8.538;2023-06-14T16:38:45;36.30;26.60
7516;DHT22;3799;47.184;8.538;2023-06-14T16:41:13;36.20;26.90
7516;DHT22;3799;47.184;8.538;2023-06-14T16:43:43;36.10;26.90
7516;DHT22;3799;47.184;8.538;2023-06-14T16:46:11;36.00;27.10
7516;DHT22;3799;47.184;8.538;2023-06-14T16:48:41;36.00;27.10
7516;DHT22;3799;47.184;8.538;2023-06-14T16:51:08;35.90;27.50
7516;DHT22;3799;47.184;8.538;2023-06-14T16:53:37;35.80;27.30
7516;DHT22;3799;47.184;8.538;2023-06-14T16:56:04;35.70;27.10
7516;DHT22;3799;47.184;8.538;2023-06-14T16:58:33;35.60;27.10
7516;DHT22;3799;47.184;8.538;2023-06-14T17:01:03;35.60;27.20
7516;DHT22;3799;47.184;8.538;2023-06-14T17:03:31;35.50;27.50